sensor_id;sensor_type;location;lat;lon;timestamp;P1;durP1;ratioP1;P2;durP2;ratioP2
74920;SDS011;63483;47.384;8.860;2023-07-02T00:01:07;3.33;;;1.80;;
74920;SDS011;63483;47.384;8.860;2023-07-02T00:03:32;2.43;;;1.50;;
74920;SDS011;63483;47.384;8.860;2023-07-02T00:05:58;4.13;;;1.97;;
74920;SDS011;63483;47.384;8.860;2023-07-02T00:08:23;2.30;;;1.40;;
74920;SDS011;63483;47.384;8.860;2023-07-02T00:10:48;2.40;;;1.50;;
74920;SDS011;63483;47.384;8.860;2023-07-02T00:13:14;2.63;;;1.40;;
74920;SDS011;63483;47.384;8.860;2023-07-02T00:15:40;3.08;;;1.40;;
74920;SDS011;63483;47.384;8.860;2023-07-02T00:18:06;2.95;;;1.95;;
74920;SDS011;63483;47.384;8.860;2023-07-02T00:20:32;2.40;;;1.53;;
74920;SDS011;63483;47.384;8.860;2023-07-02T00:23:00;2.80;;;2.28;;
74920;SDS011;63483;47.384;8.860;2023-07-02T00:25:26;3.13;;;1.55;;
74920;SDS011;63483;47.384;8.860;2023-07-02T00:27:51;2.40;;;1.20;;
74920;SDS011;63483;47.384;8.860;2023-07-02T00:30:16;2.15;;;1.23;;
74920;SDS011;63483;47.384;8.860;2023-07-02T00:32:42;2.07;;;1.60;;
74920;SDS011;63483;47.384;8.860;2023-07-02T00:35:07;3.13;;;1.80;;
74920;SDS011;63483;47.384;8.860;2023-07-02T00:37:32;2.33;;;1.57;;
74920;SDS011;63483;47.384;8.860;2023-07-02T00:39:58;2.70;;;1.97;;
74920;SDS011;63483;47.384;8.860;2023-07-02T00:42:23;1.97;;;1.57;;
74920;SDS011;63483;47.384;8.860;2023-07-02T00:44:49;2.20;;;1.40;;
74920;SDS011;63483;47.384;8.860;2023-07-02T00:47:17;2.00;;;1.55;;
74920;SDS011;63483;47.384;8.860;2023-07-02T00:49:42;2.60;;;1.57;;
74920;SDS011;63483;47.384;8.860;2023-07-02T00:52:08;2.35;;;1.25;;
74920;SDS011;63483;47.384;8.860;2023-07-02T00:54:34;2.93;;;1.80;;
74920;SDS011;63483;47.384;8.860;2023-07-02T00:57:00;2.13;;;1.88;;
74920;SDS011;63483;47.384;8.860;2023-07-02T00:59:30;4.88;;;2.80;;
74920;SDS011;63483;47.384;8.860;2023-07-02T01:01:58;3.15;;;1.90;;
74920;SDS011;63483;47.384;8.860;2023-07-02T01:04:24;2.80;;;1.40;;
74920;SDS011;63483;47.384;8.860;2023-07-02T01:06:52;2.85;;;1.70;;
74920;SDS011;63483;47.384;8.860;2023-07-02T01:09:22;2.53;;;1.30;;
74920;SDS011;63483;47.384;8.860;2023-07-02T01:11:53;2.63;;;1.85;;
74920;SDS011;63483;47.384;8.860;2023-07-02T01:14:22;2.13;;;1.48;;
74920;SDS011;63483;47.384;8.860;2023-07-02T01:17:06;3.58;;;1.63;;
74920;SDS011;63483;47.384;8.860;2023-07-02T01:22:07;2.27;;;1.47;;
74920;SDS011;63483;47.384;8.860;2023-07-02T01:24:33;2.00;;;1.38;;
74920;SDS011;63483;47.384;8.860;2023-07-02T01:26:59;2.60;;;1.60;;
74920;SDS011;63483;47.384;8.860;2023-07-02T01:29:28;3.63;;;1.30;;
74920;SDS011;63483;47.384;8.860;2023-07-02T01:31:54;2.65;;;1.58;;
74920;SDS011;63483;47.384;8.860;2023-07-02T01:34:20;4.37;;;1.20;;
74920;SDS011;63483;47.384;8.860;2023-07-02T01:36:45;1.75;;;0.90;;
74920;SDS011;63483;47.384;8.860;2023-07-02T01:39:11;1.73;;;0.80;;
74920;SDS011;63483;47.384;8.860;2023-07-02T01:41:49;2.40;;;1.47;;
74920;SDS011;63483;47.384;8.860;2023-07-02T01:44:16;1.88;;;1.13;;
74920;SDS011;63483;47.384;8.860;2023-07-02T01:46:43;1.87;;;1.00;;
74920;SDS011;63483;47.384;8.860;2023-07-02T01:49:09;1.55;;;0.80;;
74920;SDS011;63483;47.384;8.860;2023-07-02T01:51:34;2.83;;;1.07;;
74920;SDS011;63483;47.384;8.860;2023-07-02T01:53:59;2.00;;;0.90;;
74920;SDS011;63483;47.384;8.860;2023-07-02T01:56:25;2.38;;;1.30;;
74920;SDS011;63483;47.384;8.860;2023-07-02T01:58:54;2.17;;;1.10;;
74920;SDS011;63483;47.384;8.860;2023-07-02T02:01:19;3.20;;;2.08;;
74920;SDS011;63483;47.384;8.860;2023-07-02T02:03:45;3.27;;;1.97;;
74920;SDS011;63483;47.384;8.860;2023-07-02T02:06:10;5.00;;;2.27;;
74920;SDS011;63483;47.384;8.860;2023-07-02T02:08:35;3.90;;;2.22;;
74920;SDS011;63483;47.384;8.860;2023-07-02T02:11:00;5.40;;;2.73;;
74920;SDS011;63483;47.384;8.860;2023-07-02T02:13:26;3.83;;;2.57;;
74920;SDS011;63483;47.384;8.860;2023-07-02T02:15:51;3.80;;;2.47;;
74920;SDS011;63483;47.384;8.860;2023-07-02T02:18:17;4.17;;;3.03;;
74920;SDS011;63483;47.384;8.860;2023-07-02T02:20:42;3.57;;;2.87;;
74920;SDS011;63483;47.384;8.860;2023-07-02T02:23:07;4.33;;;2.20;;
74920;SDS011;63483;47.384;8.860;2023-07-02T02:25:33;4.53;;;2.47;;
74920;SDS011;63483;47.384;8.860;2023-07-02T02:27:58;3.17;;;2.07;;
74920;SDS011;63483;47.384;8.860;2023-07-02T02:30:24;5.17;;;2.07;;
74920;SDS011;63483;47.384;8.860;2023-07-02T02:32:49;3.40;;;2.17;;
74920;SDS011;63483;47.384;8.860;2023-07-02T02:35:14;4.10;;;2.57;;
74920;SDS011;63483;47.384;8.860;2023-07-02T02:37:40;4.30;;;3.03;;
74920;SDS011;63483;47.384;8.860;2023-07-02T02:40:06;5.27;;;2.33;;
74920;SDS011;63483;47.384;8.860;2023-07-02T02:42:33;6.78;;;4.28;;
74920;SDS011;63483;47.384;8.860;2023-07-02T02:44:59;6.97;;;3.63;;
74920;SDS011;63483;47.384;8.860;2023-07-02T02:47:24;6.27;;;3.60;;
74920;SDS011;63483;47.384;8.860;2023-07-02T02:49:49;5.63;;;3.40;;
74920;SDS011;63483;47.384;8.860;2023-07-02T02:52:15;6.60;;;4.17;;
74920;SDS011;63483;47.384;8.860;2023-07-02T02:54:40;6.67;;;3.80;;
74920;SDS011;63483;47.384;8.860;2023-07-02T02:57:06;5.72;;;3.17;;
74920;SDS011;63483;47.384;8.860;2023-07-02T02:59:31;7.43;;;4.00;;
74920;SDS011;63483;47.384;8.860;2023-07-02T03:01:56;6.00;;;3.90;;
74920;SDS011;63483;47.384;8.860;2023-07-02T03:04:21;5.47;;;3.67;;
74920;SDS011;63483;47.384;8.860;2023-07-02T03:06:48;7.40;;;4.20;;
74920;SDS011;63483;47.384;8.860;2023-07-02T03:09:14;5.40;;;3.33;;
74920;SDS011;63483;47.384;8.860;2023-07-02T03:11:39;7.90;;;4.00;;
74920;SDS011;63483;47.384;8.860;2023-07-02T03:14:04;7.23;;;3.77;;
74920;SDS011;63483;47.384;8.860;2023-07-02T03:16:30;5.43;;;3.33;;
74920;SDS011;63483;47.384;8.860;2023-07-02T03:18:55;5.97;;;3.10;;
74920;SDS011;63483;47.384;8.860;2023-07-02T03:21:20;5.23;;;3.50;;
74920;SDS011;63483;47.384;8.860;2023-07-02T03:23:45;6.80;;;3.57;;
74920;SDS011;63483;47.384;8.860;2023-07-02T03:26:11;6.80;;;4.30;;
74920;SDS011;63483;47.384;8.860;2023-07-02T03:28:36;6.87;;;3.60;;
74920;SDS011;63483;47.384;8.860;2023-07-02T03:31:01;6.53;;;3.77;;
74920;SDS011;63483;47.384;8.860;2023-07-02T03:33:27;6.00;;;3.77;;
74920;SDS011;63483;47.384;8.860;2023-07-02T03:35:52;6.33;;;4.03;;
74920;SDS011;63483;47.384;8.860;2023-07-02T03:38:17;4.97;;;3.70;;
74920;SDS011;63483;47.384;8.860;2023-07-02T03:40:43;5.90;;;3.23;;
74920;SDS011;63483;47.384;8.860;2023-07-02T03:43:08;7.07;;;3.87;;
74920;SDS011;63483;47.384;8.860;2023-07-02T03:45:33;5.20;;;3.65;;
74920;SDS011;63483;47.384;8.860;2023-07-02T03:47:58;4.77;;;3.27;;
74920;SDS011;63483;47.384;8.860;2023-07-02T03:50:24;5.67;;;3.87;;
74920;SDS011;63483;47.384;8.860;2023-07-02T03:52:49;5.10;;;3.10;;
74920;SDS011;63483;47.384;8.860;2023-07-02T03:55:14;5.60;;;3.73;;
74920;SDS011;63483;47.384;8.860;2023-07-02T03:57:40;8.67;;;3.90;;
74920;SDS011;63483;47.384;8.860;2023-07-02T04:00:06;6.53;;;3.70;;
74920;SDS011;63483;47.384;8.860;2023-07-02T04:02:32;5.75;;;4.38;;
74920;SDS011;63483;47.384;8.860;2023-07-02T04:04:58;6.43;;;4.03;;
74920;SDS011;63483;47.384;8.860;2023-07-02T04:07:23;9.10;;;4.27;;
74920;SDS011;63483;47.384;8.860;2023-07-02T04:09:48;8.00;;;4.47;;
74920;SDS011;63483;47.384;8.860;2023-07-02T04:12:14;6.88;;;3.65;;
74920;SDS011;63483;47.384;8.860;2023-07-02T04:14:39;9.40;;;4.07;;
74920;SDS011;63483;47.384;8.860;2023-07-02T04:17:04;7.70;;;4.60;;
74920;SDS011;63483;47.384;8.860;2023-07-02T04:19:30;8.07;;;4.40;;
74920;SDS011;63483;47.384;8.860;2023-07-02T04:21:55;7.20;;;4.30;;
74920;SDS011;63483;47.384;8.860;2023-07-02T04:24:21;8.07;;;4.35;;
74920;SDS011;63483;47.384;8.860;2023-07-02T04:26:46;6.90;;;4.50;;
74920;SDS011;63483;47.384;8.860;2023-07-02T04:29:11;8.40;;;4.80;;
74920;SDS011;63483;47.384;8.860;2023-07-02T04:31:36;8.40;;;5.47;;
74920;SDS011;63483;47.384;8.860;2023-07-02T04:34:03;9.93;;;5.00;;
74920;SDS011;63483;47.384;8.860;2023-07-02T04:36:30;9.90;;;5.80;;
74920;SDS011;63483;47.384;8.860;2023-07-02T04:38:56;8.20;;;4.90;;
74920;SDS011;63483;47.384;8.860;2023-07-02T04:41:21;9.30;;;5.37;;
74920;SDS011;63483;47.384;8.860;2023-07-02T04:43:46;10.77;;;6.67;;
74920;SDS011;63483;47.384;8.860;2023-07-02T04:46:12;9.57;;;5.97;;
74920;SDS011;63483;47.384;8.860;2023-07-02T04:48:38;12.40;;;5.93;;
74920;SDS011;63483;47.384;8.860;2023-07-02T04:51:03;10.47;;;6.27;;
74920;SDS011;63483;47.384;8.860;2023-07-02T04:53:29;11.57;;;6.72;;
74920;SDS011;63483;47.384;8.860;2023-07-02T04:55:54;11.63;;;5.93;;
74920;SDS011;63483;47.384;8.860;2023-07-02T04:58:21;9.27;;;5.43;;
74920;SDS011;63483;47.384;8.860;2023-07-02T05:00:47;9.07;;;5.57;;
74920;SDS011;63483;47.384;8.860;2023-07-02T05:03:12;11.87;;;7.10;;
74920;SDS011;63483;47.384;8.860;2023-07-02T05:05:37;14.60;;;6.00;;
74920;SDS011;63483;47.384;8.860;2023-07-02T05:08:03;11.13;;;5.67;;
74920;SDS011;63483;47.384;8.860;2023-07-02T05:10:29;10.15;;;5.88;;
74920;SDS011;63483;47.384;8.860;2023-07-02T05:12:55;12.27;;;6.20;;
74920;SDS011;63483;47.384;8.860;2023-07-02T05:15:20;10.90;;;5.90;;
74920;SDS011;63483;47.384;8.860;2023-07-02T05:17:45;10.53;;;5.77;;
74920;SDS011;63483;47.384;8.860;2023-07-02T05:20:11;8.70;;;5.53;;
74920;SDS011;63483;47.384;8.860;2023-07-02T05:22:36;9.50;;;6.10;;
74920;SDS011;63483;47.384;8.860;2023-07-02T05:25:01;9.33;;;5.20;;
74920;SDS011;63483;47.384;8.860;2023-07-02T05:27:27;9.23;;;5.13;;
74920;SDS011;63483;47.384;8.860;2023-07-02T05:29:52;9.50;;;5.50;;
74920;SDS011;63483;47.384;8.860;2023-07-02T05:32:18;9.23;;;4.82;;
74920;SDS011;63483;47.384;8.860;2023-07-02T05:34:43;7.53;;;4.33;;
74920;SDS011;63483;47.384;8.860;2023-07-02T05:37:08;7.97;;;4.37;;
74920;SDS011;63483;47.384;8.860;2023-07-02T05:39:34;9.00;;;5.17;;
74920;SDS011;63483;47.384;8.860;2023-07-02T05:41:59;8.40;;;4.70;;
74920;SDS011;63483;47.384;8.860;2023-07-02T05:44:24;7.73;;;4.50;;
74920;SDS011;63483;47.384;8.860;2023-07-02T05:46:50;9.13;;;5.10;;
74920;SDS011;63483;47.384;8.860;2023-07-02T05:49:15;9.00;;;4.47;;
74920;SDS011;63483;47.384;8.860;2023-07-02T05:51:40;7.97;;;4.33;;
74920;SDS011;63483;47.384;8.860;2023-07-02T05:54:06;7.37;;;4.90;;
74920;SDS011;63483;47.384;8.860;2023-07-02T05:56:31;8.00;;;4.77;;
74920;SDS011;63483;47.384;8.860;2023-07-02T05:58:57;8.50;;;4.70;;
74920;SDS011;63483;47.384;8.860;2023-07-02T06:01:22;7.10;;;4.77;;
74920;SDS011;63483;47.384;8.860;2023-07-02T06:03:49;8.15;;;5.05;;
74920;SDS011;63483;47.384;8.860;2023-07-02T06:06:14;7.73;;;4.90;;
74920;SDS011;63483;47.384;8.860;2023-07-02T06:08:40;8.77;;;4.72;;
74920;SDS011;63483;47.384;8.860;2023-07-02T06:11:05;9.67;;;4.77;;
74920;SDS011;63483;47.384;8.860;2023-07-02T06:13:30;7.37;;;4.33;;
74920;SDS011;63483;47.384;8.860;2023-07-02T06:15:56;7.30;;;4.40;;
74920;SDS011;63483;47.384;8.860;2023-07-02T06:18:22;6.60;;;4.35;;
74920;SDS011;63483;47.384;8.860;2023-07-02T06:20:47;7.03;;;4.33;;
74920;SDS011;63483;47.384;8.860;2023-07-02T06:23:12;8.17;;;5.00;;
74920;SDS011;63483;47.384;8.860;2023-07-02T06:25:38;7.43;;;3.87;;
74920;SDS011;63483;47.384;8.860;2023-07-02T06:28:03;7.87;;;5.43;;
74920;SDS011;63483;47.384;8.860;2023-07-02T06:30:28;7.87;;;4.90;;
74920;SDS011;63483;47.384;8.860;2023-07-02T06:32:54;7.90;;;4.95;;
74920;SDS011;63483;47.384;8.860;2023-07-02T06:35:20;7.13;;;5.00;;
74920;SDS011;63483;47.384;8.860;2023-07-02T06:37:45;6.85;;;4.82;;
74920;SDS011;63483;47.384;8.860;2023-07-02T06:40:11;8.10;;;4.70;;
74920;SDS011;63483;47.384;8.860;2023-07-02T06:42:36;8.37;;;5.23;;
74920;SDS011;63483;47.384;8.860;2023-07-02T06:45:02;7.22;;;4.60;;
74920;SDS011;63483;47.384;8.860;2023-07-02T06:47:28;8.73;;;4.93;;
74920;SDS011;63483;47.384;8.860;2023-07-02T06:49:53;7.73;;;4.70;;
74920;SDS011;63483;47.384;8.860;2023-07-02T06:52:19;6.80;;;4.47;;
74920;SDS011;63483;47.384;8.860;2023-07-02T06:54:44;9.47;;;4.70;;
74920;SDS011;63483;47.384;8.860;2023-07-02T06:57:09;7.47;;;4.77;;
74920;SDS011;63483;47.384;8.860;2023-07-02T06:59:35;9.17;;;5.07;;
74920;SDS011;63483;47.384;8.860;2023-07-02T07:02:01;6.90;;;4.43;;
74920;SDS011;63483;47.384;8.860;2023-07-02T07:04:27;6.70;;;4.68;;
74920;SDS011;63483;47.384;8.860;2023-07-02T07:06:53;7.43;;;4.95;;
74920;SDS011;63483;47.384;8.860;2023-07-02T07:09:20;8.35;;;4.97;;
74920;SDS011;63483;47.384;8.860;2023-07-02T07:11:45;8.43;;;4.97;;
74920;SDS011;63483;47.384;8.860;2023-07-02T07:14:11;8.27;;;5.60;;
74920;SDS011;63483;47.384;8.860;2023-07-02T07:16:36;9.20;;;4.80;;
74920;SDS011;63483;47.384;8.860;2023-07-02T07:19:02;8.48;;;5.32;;
74920;SDS011;63483;47.384;8.860;2023-07-02T07:21:27;8.37;;;5.40;;
74920;SDS011;63483;47.384;8.860;2023-07-02T07:23:52;8.23;;;4.83;;
74920;SDS011;63483;47.384;8.860;2023-07-02T07:26:18;6.80;;;4.67;;
74920;SDS011;63483;47.384;8.860;2023-07-02T07:28:43;9.20;;;5.03;;
74920;SDS011;63483;47.384;8.860;2023-07-02T07:31:08;9.53;;;5.90;;
74920;SDS011;63483;47.384;8.860;2023-07-02T07:33:33;9.30;;;6.53;;
74920;SDS011;63483;47.384;8.860;2023-07-02T07:35:59;10.02;;;6.28;;
74920;SDS011;63483;47.384;8.860;2023-07-02T07:38:25;10.03;;;6.20;;
74920;SDS011;63483;47.384;8.860;2023-07-02T07:40:51;8.70;;;5.80;;
74920;SDS011;63483;47.384;8.860;2023-07-02T07:43:16;9.80;;;5.87;;
74920;SDS011;63483;47.384;8.860;2023-07-02T07:45:41;9.40;;;5.73;;
74920;SDS011;63483;47.384;8.860;2023-07-02T07:48:07;11.30;;;6.40;;
74920;SDS011;63483;47.384;8.860;2023-07-02T07:50:32;9.13;;;5.70;;
74920;SDS011;63483;47.384;8.860;2023-07-02T07:52:58;10.73;;;5.43;;
74920;SDS011;63483;47.384;8.860;2023-07-02T07:55:23;9.15;;;5.88;;
74920;SDS011;63483;47.384;8.860;2023-07-02T07:57:49;9.00;;;6.13;;
74920;SDS011;63483;47.384;8.860;2023-07-02T08:00:14;9.13;;;5.63;;
74920;SDS011;63483;47.384;8.860;2023-07-02T08:02:42;13.63;;;7.07;;
74920;SDS011;63483;47.384;8.860;2023-07-02T08:05:10;15.00;;;8.53;;
74920;SDS011;63483;47.384;8.860;2023-07-02T08:07:35;16.47;;;8.60;;
74920;SDS011;63483;47.384;8.860;2023-07-02T08:10:01;15.57;;;9.53;;
74920;SDS011;63483;47.384;8.860;2023-07-02T08:12:27;14.32;;;8.23;;
74920;SDS011;63483;47.384;8.860;2023-07-02T08:14:54;17.40;;;9.30;;
74920;SDS011;63483;47.384;8.860;2023-07-02T08:17:20;16.00;;;9.00;;
74920;SDS011;63483;47.384;8.860;2023-07-02T08:19:45;15.77;;;8.33;;
74920;SDS011;63483;47.384;8.860;2023-07-02T08:22:11;16.20;;;8.67;;
74920;SDS011;63483;47.384;8.860;2023-07-02T08:24:36;17.37;;;9.13;;
74920;SDS011;63483;47.384;8.860;2023-07-02T08:27:01;18.43;;;9.37;;
74920;SDS011;63483;47.384;8.860;2023-07-02T08:29:27;17.13;;;9.53;;
74920;SDS011;63483;47.384;8.860;2023-07-02T08:31:54;17.50;;;9.88;;
74920;SDS011;63483;47.384;8.860;2023-07-02T08:34:19;16.97;;;8.73;;
74920;SDS011;63483;47.384;8.860;2023-07-02T08:36:44;20.17;;;11.17;;
74920;SDS011;63483;47.384;8.860;2023-07-02T08:39:10;18.52;;;9.98;;
74920;SDS011;63483;47.384;8.860;2023-07-02T08:41:42;19.07;;;11.00;;
74920;SDS011;63483;47.384;8.860;2023-07-02T08:44:09;19.83;;;10.05;;
74920;SDS011;63483;47.384;8.860;2023-07-02T08:46:35;17.58;;;10.43;;
74920;SDS011;63483;47.384;8.860;2023-07-02T08:49:01;18.80;;;10.53;;
74920;SDS011;63483;47.384;8.860;2023-07-02T08:51:26;22.97;;;11.03;;
74920;SDS011;63483;47.384;8.860;2023-07-02T08:53:51;21.33;;;11.43;;
74920;SDS011;63483;47.384;8.860;2023-07-02T08:56:17;19.23;;;10.43;;
74920;SDS011;63483;47.384;8.860;2023-07-02T08:58:42;19.17;;;10.40;;
74920;SDS011;63483;47.384;8.860;2023-07-02T09:01:08;21.77;;;11.23;;
74920;SDS011;63483;47.384;8.860;2023-07-02T09:03:38;18.85;;;10.13;;
74920;SDS011;63483;47.384;8.860;2023-07-02T09:06:05;19.70;;;11.00;;
74920;SDS011;63483;47.384;8.860;2023-07-02T09:08:31;21.23;;;11.48;;
74920;SDS011;63483;47.384;8.860;2023-07-02T09:11:06;20.77;;;10.77;;
74920;SDS011;63483;47.384;8.860;2023-07-02T09:13:41;24.67;;;12.02;;
74920;SDS011;63483;47.384;8.860;2023-07-02T09:16:08;20.27;;;11.05;;
74920;SDS011;63483;47.384;8.860;2023-07-02T09:18:34;19.30;;;10.83;;
74920;SDS011;63483;47.384;8.860;2023-07-02T09:20:59;19.75;;;10.88;;
74920;SDS011;63483;47.384;8.860;2023-07-02T09:23:34;21.07;;;10.87;;
74920;SDS011;63483;47.384;8.860;2023-07-02T09:26:00;16.55;;;9.30;;
74920;SDS011;63483;47.384;8.860;2023-07-02T09:28:26;21.07;;;10.70;;
74920;SDS011;63483;47.384;8.860;2023-07-02T09:30:52;19.40;;;10.87;;
74920;SDS011;63483;47.384;8.860;2023-07-02T09:33:27;20.13;;;11.10;;
74920;SDS011;63483;47.384;8.860;2023-07-02T09:35:53;18.63;;;10.15;;
74920;SDS011;63483;47.384;8.860;2023-07-02T09:38:19;17.17;;;10.00;;
74920;SDS011;63483;47.384;8.860;2023-07-02T09:40:49;18.13;;;10.48;;
74920;SDS011;63483;47.384;8.860;2023-07-02T09:43:16;18.15;;;10.15;;
74920;SDS011;63483;47.384;8.860;2023-07-02T09:45:47;18.03;;;10.07;;
74920;SDS011;63483;47.384;8.860;2023-07-02T09:48:13;19.65;;;11.20;;
74920;SDS011;63483;47.384;8.860;2023-07-02T09:50:47;24.02;;;11.13;;
74920;SDS011;63483;47.384;8.860;2023-07-02T09:53:14;19.65;;;11.50;;
74920;SDS011;63483;47.384;8.860;2023-07-02T09:55:41;17.43;;;9.97;;
74920;SDS011;63483;47.384;8.860;2023-07-02T09:58:07;21.85;;;11.35;;
74920;SDS011;63483;47.384;8.860;2023-07-02T10:00:32;17.93;;;10.60;;
74920;SDS011;63483;47.384;8.860;2023-07-02T10:02:58;22.25;;;11.75;;
74920;SDS011;63483;47.384;8.860;2023-07-02T10:05:28;18.00;;;10.73;;
74920;SDS011;63483;47.384;8.860;2023-07-02T10:07:55;18.90;;;11.00;;
74920;SDS011;63483;47.384;8.860;2023-07-02T10:10:35;19.10;;;11.13;;
74920;SDS011;63483;47.384;8.860;2023-07-02T10:13:01;19.73;;;11.07;;
74920;SDS011;63483;47.384;8.860;2023-07-02T10:15:27;18.10;;;9.97;;
74920;SDS011;63483;47.384;8.860;2023-07-02T10:17:57;21.58;;;11.25;;
74920;SDS011;63483;47.384;8.860;2023-07-02T10:20:33;20.42;;;10.73;;
74920;SDS011;63483;47.384;8.860;2023-07-02T10:23:04;19.67;;;10.68;;
74920;SDS011;63483;47.384;8.860;2023-07-02T10:25:37;21.40;;;11.05;;
74920;SDS011;63483;47.384;8.860;2023-07-02T10:28:16;20.03;;;11.30;;
74920;SDS011;63483;47.384;8.860;2023-07-02T10:30:44;20.40;;;11.27;;
74920;SDS011;63483;47.384;8.860;2023-07-02T10:33:14;21.13;;;12.23;;
74920;SDS011;63483;47.384;8.860;2023-07-02T10:35:41;18.40;;;10.48;;
74920;SDS011;63483;47.384;8.860;2023-07-02T10:38:19;20.05;;;9.88;;
74920;SDS011;63483;47.384;8.860;2023-07-02T10:40:46;18.00;;;11.27;;
74920;SDS011;63483;47.384;8.860;2023-07-02T10:43:11;21.77;;;11.35;;
74920;SDS011;63483;47.384;8.860;2023-07-02T10:45:37;20.50;;;10.67;;
74920;SDS011;63483;47.384;8.860;2023-07-02T10:48:03;17.90;;;10.67;;
74920;SDS011;63483;47.384;8.860;2023-07-02T10:50:33;21.00;;;10.98;;
74920;SDS011;63483;47.384;8.860;2023-07-02T10:52:58;20.37;;;11.80;;
74920;SDS011;63483;47.384;8.860;2023-07-02T10:55:24;21.27;;;11.07;;
74920;SDS011;63483;47.384;8.860;2023-07-02T10:57:50;17.52;;;10.30;;
74920;SDS011;63483;47.384;8.860;2023-07-02T11:00:16;16.25;;;9.82;;
74920;SDS011;63483;47.384;8.860;2023-07-02T11:02:42;18.25;;;11.00;;
74920;SDS011;63483;47.384;8.860;2023-07-02T11:05:08;14.83;;;8.90;;
74920;SDS011;63483;47.384;8.860;2023-07-02T11:07:46;19.45;;;10.38;;
74920;SDS011;63483;47.384;8.860;2023-07-02T11:10:17;18.55;;;11.23;;
74920;SDS011;63483;47.384;8.860;2023-07-02T11:12:43;18.50;;;10.38;;
74920;SDS011;63483;47.384;8.860;2023-07-02T11:15:13;16.47;;;9.33;;
74920;SDS011;63483;47.384;8.860;2023-07-02T11:17:39;16.70;;;9.60;;
74920;SDS011;63483;47.384;8.860;2023-07-02T11:20:08;15.02;;;8.32;;
74920;SDS011;63483;47.384;8.860;2023-07-02T11:22:35;19.13;;;10.35;;
74920;SDS011;63483;47.384;8.860;2023-07-02T11:25:16;16.25;;;10.02;;
74920;SDS011;63483;47.384;8.860;2023-07-02T11:27:42;14.37;;;9.07;;
74920;SDS011;63483;47.384;8.860;2023-07-02T11:30:09;15.75;;;9.82;;
74920;SDS011;63483;47.384;8.860;2023-07-02T11:32:45;16.02;;;9.02;;
74920;SDS011;63483;47.384;8.860;2023-07-02T11:35:13;17.45;;;9.80;;
74920;SDS011;63483;47.384;8.860;2023-07-02T11:37:39;16.37;;;9.20;;
74920;SDS011;63483;47.384;8.860;2023-07-02T11:40:04;15.57;;;9.20;;
74920;SDS011;63483;47.384;8.860;2023-07-02T11:42:30;15.40;;;9.38;;
74920;SDS011;63483;47.384;8.860;2023-07-02T11:44:55;14.50;;;8.67;;
74920;SDS011;63483;47.384;8.860;2023-07-02T11:47:20;15.47;;;9.20;;
74920;SDS011;63483;47.384;8.860;2023-07-02T11:49:46;16.47;;;9.03;;
74920;SDS011;63483;47.384;8.860;2023-07-02T11:52:11;15.47;;;8.80;;
74920;SDS011;63483;47.384;8.860;2023-07-02T11:54:37;15.77;;;9.13;;
74920;SDS011;63483;47.384;8.860;2023-07-02T11:57:03;14.88;;;9.40;;
74920;SDS011;63483;47.384;8.860;2023-07-02T11:59:29;17.63;;;9.40;;
74920;SDS011;63483;47.384;8.860;2023-07-02T12:01:54;15.57;;;8.97;;
74920;SDS011;63483;47.384;8.860;2023-07-02T12:04:19;12.97;;;8.07;;
74920;SDS011;63483;47.384;8.860;2023-07-02T12:06:45;14.65;;;9.05;;
74920;SDS011;63483;47.384;8.860;2023-07-02T12:09:10;14.60;;;9.43;;
74920;SDS011;63483;47.384;8.860;2023-07-02T12:11:36;13.90;;;8.80;;
74920;SDS011;63483;47.384;8.860;2023-07-02T12:14:01;17.47;;;9.50;;
74920;SDS011;63483;47.384;8.860;2023-07-02T12:16:26;14.83;;;8.40;;
74920;SDS011;63483;47.384;8.860;2023-07-02T12:18:51;16.47;;;8.93;;
74920;SDS011;63483;47.384;8.860;2023-07-02T12:21:17;13.33;;;8.57;;
74920;SDS011;63483;47.384;8.860;2023-07-02T12:23:43;15.00;;;9.20;;
74920;SDS011;63483;47.384;8.860;2023-07-02T12:26:08;15.55;;;8.68;;
74920;SDS011;63483;47.384;8.860;2023-07-02T12:28:34;14.07;;;8.63;;
74920;SDS011;63483;47.384;8.860;2023-07-02T12:30:59;12.27;;;8.30;;
74920;SDS011;63483;47.384;8.860;2023-07-02T12:33:25;13.47;;;8.33;;
74920;SDS011;63483;47.384;8.860;2023-07-02T12:35:50;12.97;;;7.87;;
74920;SDS011;63483;47.384;8.860;2023-07-02T12:38:15;14.13;;;8.70;;
74920;SDS011;63483;47.384;8.860;2023-07-02T12:40:40;14.33;;;9.10;;
74920;SDS011;63483;47.384;8.860;2023-07-02T12:43:06;12.30;;;7.73;;
74920;SDS011;63483;47.384;8.860;2023-07-02T12:45:31;15.30;;;8.80;;
74920;SDS011;63483;47.384;8.860;2023-07-02T12:47:56;13.20;;;8.30;;
74920;SDS011;63483;47.384;8.860;2023-07-02T12:50:22;14.20;;;8.33;;
74920;SDS011;63483;47.384;8.860;2023-07-02T12:52:47;14.60;;;9.33;;
74920;SDS011;63483;47.384;8.860;2023-07-02T12:55:12;18.27;;;10.20;;
74920;SDS011;63483;47.384;8.860;2023-07-02T12:57:38;15.00;;;9.43;;
74920;SDS011;63483;47.384;8.860;2023-07-02T13:00:03;13.53;;;8.90;;
74920;SDS011;63483;47.384;8.860;2023-07-02T13:02:33;14.20;;;8.48;;
74920;SDS011;63483;47.384;8.860;2023-07-02T13:04:59;11.47;;;7.63;;
74920;SDS011;63483;47.384;8.860;2023-07-02T13:07:24;11.25;;;7.20;;
74920;SDS011;63483;47.384;8.860;2023-07-02T13:09:50;10.35;;;6.50;;
74920;SDS011;63483;47.384;8.860;2023-07-02T13:12:16;11.30;;;7.30;;
74920;SDS011;63483;47.384;8.860;2023-07-02T13:14:42;10.13;;;6.67;;
74920;SDS011;63483;47.384;8.860;2023-07-02T13:17:07;12.38;;;7.63;;
74920;SDS011;63483;47.384;8.860;2023-07-02T13:19:33;11.97;;;7.97;;
74920;SDS011;63483;47.384;8.860;2023-07-02T13:21:58;13.13;;;8.20;;
74920;SDS011;63483;47.384;8.860;2023-07-02T13:24:23;11.80;;;7.47;;
74920;SDS011;63483;47.384;8.860;2023-07-02T13:26:49;12.73;;;7.90;;
74920;SDS011;63483;47.384;8.860;2023-07-02T13:29:15;12.32;;;7.90;;
74920;SDS011;63483;47.384;8.860;2023-07-02T13:31:41;14.27;;;8.10;;
74920;SDS011;63483;47.384;8.860;2023-07-02T13:34:07;11.52;;;6.95;;
74920;SDS011;63483;47.384;8.860;2023-07-02T13:36:32;11.27;;;7.43;;
74920;SDS011;63483;47.384;8.860;2023-07-02T13:38:57;11.53;;;7.53;;
74920;SDS011;63483;47.384;8.860;2023-07-02T13:41:23;10.87;;;7.13;;
74920;SDS011;63483;47.384;8.860;2023-07-02T13:43:48;10.83;;;6.90;;
74920;SDS011;63483;47.384;8.860;2023-07-02T13:46:14;10.60;;;6.63;;
74920;SDS011;63483;47.384;8.860;2023-07-02T13:48:39;13.30;;;6.90;;
74920;SDS011;63483;47.384;8.860;2023-07-02T13:51:05;10.52;;;7.05;;
74920;SDS011;63483;47.384;8.860;2023-07-02T13:53:33;12.73;;;7.00;;
74920;SDS011;63483;47.384;8.860;2023-07-02T13:55:58;12.25;;;7.55;;
74920;SDS011;63483;47.384;8.860;2023-07-02T13:58:23;12.73;;;7.73;;
74920;SDS011;63483;47.384;8.860;2023-07-02T14:00:49;13.97;;;7.87;;
74920;SDS011;63483;47.384;8.860;2023-07-02T14:03:14;11.67;;;7.47;;
74920;SDS011;63483;47.384;8.860;2023-07-02T14:05:40;14.23;;;8.67;;
74920;SDS011;63483;47.384;8.860;2023-07-02T14:08:05;12.95;;;8.02;;
74920;SDS011;63483;47.384;8.860;2023-07-02T14:10:30;11.50;;;8.10;;
74920;SDS011;63483;47.384;8.860;2023-07-02T14:12:56;12.43;;;8.07;;
74920;SDS011;63483;47.384;8.860;2023-07-02T14:15:21;13.40;;;8.40;;
74920;SDS011;63483;47.384;8.860;2023-07-02T14:17:48;11.50;;;7.70;;
74920;SDS011;63483;47.384;8.860;2023-07-02T14:20:14;13.68;;;8.90;;
74920;SDS011;63483;47.384;8.860;2023-07-02T14:22:39;12.57;;;8.30;;
74920;SDS011;63483;47.384;8.860;2023-07-02T14:25:04;12.83;;;7.70;;
74920;SDS011;63483;47.384;8.860;2023-07-02T14:27:30;11.70;;;7.87;;
74920;SDS011;63483;47.384;8.860;2023-07-02T14:29:55;12.90;;;8.13;;
74920;SDS011;63483;47.384;8.860;2023-07-02T14:32:22;13.13;;;7.97;;
74920;SDS011;63483;47.384;8.860;2023-07-02T14:34:47;12.82;;;8.23;;